Terminal Aerodrome Forecast
Issued by NWS Chicago, IL

Home | Current Version | Previous Version | Text Only | Print | Product List | Glossary Off
Versions: 1 2 3 4 5 6 7 8 9 10 11 12 13 14 15 16 17 18 19 20 21 22 23 24 25

000
FTUS43 KLOT 172330
TAFRFD
TAF
KRFD 172330Z 1800/1824 21010KT P6SM FEW300
     FM180400 23008KT P6SM SKC WS007/25045KT
     FM180900 26006KT P6SM SKC
     FM182100 31006KT P6SM SKC=

USA.gov is the U.S. government's official web portal to all federal, state and local government web resources and services.